Time;durP1;ratioP1;P1;durP2;ratioP2;P2;SDS_P1;SDS_P2;PMS_P1;PMS_P2;Temp;Humidity;BMP_temperature;BMP_pressure;BME280_temperature;BME280_humidity;BME280_pressure;Samples;Min_cycle;Max_cycle;Signal;HPM_P1;HPM_P2
2023/12/04 00:02:04;;;;;;;57.50;36.50;;;;;;;-7.42;96.52;100961.47;178076;1268;44121;-81
2023/12/04 00:06:06;;;;;;;98.90;45.70;;;;;;;-7.45;97.56;100956.29;176357;1267;59812;-80
2023/12/04 00:10:08;;;;;;;90.70;43.70;;;;;;;-7.41;99.04;100955.42;176986;1267;45882;-81
2023/12/04 00:14:10;;;;;;;120.10;58.00;;;;;;;-7.39;97.68;100957.33;176953;1267;44324;-81
2023/12/04 00:18:12;;;;;;;125.20;56.00;;;;;;;-7.40;97.41;100955.09;176575;1267;46260;-81
2023/12/04 00:22:14;;;;;;;64.20;37.30;;;;;;;-7.41;99.37;100949.39;176251;1272;46000;-81
2023/12/04 00:26:16;;;;;;;60.10;29.10;;;;;;;-7.47;98.80;100951.96;176452;1270;60175;-82
2023/12/04 00:30:18;;;;;;;62.60;31.30;;;;;;;-7.69;96.75;100950.67;176848;1267;46072;-81
2023/12/04 00:34:20;;;;;;;75.10;36.20;;;;;;;-7.86;95.85;100954.73;176543;1271;46205;-82
2023/12/04 00:38:22;;;;;;;80.20;36.60;;;;;;;-8.02;94.84;100952.25;177668;1270;44457;-82
2023/12/04 00:42:24;;;;;;;76.00;39.10;;;;;;;-8.13;95.12;100953.90;179257;1267;46050;-81
2023/12/04 00:46:26;;;;;;;75.90;39.40;;;;;;;-8.24;94.69;100945.75;179344;1267;57932;-81
2023/12/04 00:50:28;;;;;;;51.40;29.80;;;;;;;-8.31;94.96;100943.11;177711;1267;45990;-81
2023/12/04 00:54:31;;;;;;;44.50;23.90;;;;;;;-8.33;95.44;100949.14;176455;1267;46075;-82
2023/12/04 00:58:33;;;;;;;51.30;29.50;;;;;;;-8.27;96.80;100945.55;176599;1267;46122;-81
2023/12/04 01:02:34;;;;;;;51.70;26.70;;;;;;;-8.11;98.24;100943.58;177440;1268;46069;-79
2023/12/04 01:06:36;;;;;;;42.80;25.20;;;;;;;-7.99;98.09;100948.83;175474;1267;59223;-82
2023/12/04 01:10:39;;;;;;;47.20;30.20;;;;;;;-7.89;98.73;100946.29;176044;1267;46249;-82
2023/12/04 01:14:41;;;;;;;42.60;22.50;;;;;;;-7.88;96.95;100950.41;176508;1267;46048;-81
2023/12/04 01:18:43;;;;;;;41.80;20.40;;;;;;;-7.85;97.43;100961.64;176824;1267;46212;-80
2023/12/04 01:22:45;;;;;;;44.90;23.80;;;;;;;-7.83;96.41;100957.00;176796;1267;45979;-82
2023/12/04 01:26:46;;;;;;;44.00;24.90;;;;;;;-7.78;97.00;100956.67;177476;1267;58045;-81
2023/12/04 01:30:48;;;;;;;40.50;21.00;;;;;;;-7.77;95.31;100957.37;176310;1267;207586;-81
2023/12/04 01:34:50;;;;;;;51.50;24.70;;;;;;;-7.80;95.17;100949.94;176596;1267;46137;-81
2023/12/04 01:38:52;;;;;;;28.70;17.00;;;;;;;-7.84;95.04;100943.38;177708;1267;46059;-81
2023/12/04 01:42:54;;;;;;;32.50;20.20;;;;;;;-7.88;95.68;100945.42;176292;1267;46118;-82
2023/12/04 01:46:56;;;;;;;36.70;20.20;;;;;;;-7.84;96.40;100947.17;176657;1267;59981;-82
2023/12/04 01:50:58;;;;;;;33.50;16.70;;;;;;;-7.84;95.55;100945.28;177176;1267;46137;-78
2023/12/04 01:55:00;;;;;;;41.70;24.20;;;;;;;-7.81;95.67;100935.99;176326;1270;46071;-81
2023/12/04 01:59:03;;;;;;;46.50;21.50;;;;;;;-7.79;95.99;100931.00;177534;1268;45988;-80
2023/12/04 02:03:06;;;;;;;36.40;22.20;;;;;;;-7.79;96.37;100933.59;177204;1267;45895;-81
2023/12/04 02:07:09;;;;;;;37.20;20.40;;;;;;;-7.87;94.74;100937.52;176268;1267;59294;-81
2023/12/04 02:11:11;;;;;;;47.90;26.60;;;;;;;-7.88;96.23;100934.06;177695;1268;45996;-82
2023/12/04 02:15:13;;;;;;;37.20;25.00;;;;;;;-7.80;97.94;100936.85;176765;1267;45932;-81
2023/12/04 02:19:15;;;;;;;69.30;37.20;;;;;;;-7.82;97.10;100937.02;177037;1267;46110;-81
2023/12/04 02:23:17;;;;;;;33.10;19.20;;;;;;;-7.99;95.38;100936.24;177046;1268;44176;-81
2023/12/04 02:27:26;;;;;;;34.50;18.60;;;;;;;-8.13;95.16;100935.84;175996;1267;58265;-81
2023/12/04 02:31:30;;;;;;;35.30;20.40;;;;;;;-8.14;96.41;100935.82;175411;1267;46225;-82
2023/12/04 02:35:34;;;;;;;32.10;18.00;;;;;;;-8.11;96.57;100933.61;175709;1270;46535;-81
2023/12/04 02:39:36;;;;;;;28.70;17.30;;;;;;;-8.17;95.90;100930.98;177123;1267;46808;-80
2023/12/04 02:43:38;;;;;;;23.20;13.30;;;;;;;-8.31;95.10;100928.14;175920;1270;45968;-81
2023/12/04 02:47:40;;;;;;;27.40;13.60;;;;;;;-8.53;94.11;100928.37;177029;1267;59395;-81
2023/12/04 02:51:42;;;;;;;34.60;16.50;;;;;;;-8.79;93.74;100928.71;177142;1267;46133;-81
2023/12/04 02:55:44;;;;;;;41.40;23.30;;;;;;;-8.96;94.21;100936.30;176954;1267;46082;-82
2023/12/04 02:59:45;;;;;;;43.20;21.20;;;;;;;-9.05;94.87;100935.70;177211;1268;46226;-81
2023/12/04 03:03:47;;;;;;;49.70;27.10;;;;;;;-8.98;96.27;100939.88;176953;1267;46007;-82
2023/12/04 03:07:49;;;;;;;54.80;25.50;;;;;;;-8.90;96.92;100946.48;177287;1267;59571;-82
2023/12/04 03:11:51;;;;;;;35.40;19.50;;;;;;;-8.92;95.67;100943.20;178016;1267;46160;-84
2023/12/04 03:15:53;;;;;;;34.90;19.10;;;;;;;-8.94;95.01;100949.73;176993;1267;46127;-81
2023/12/04 03:19:55;;;;;;;35.30;19.80;;;;;;;-9.01;93.53;100947.42;177116;1267;46124;-81
2023/12/04 03:23:56;;;;;;;53.50;28.30;;;;;;;-9.11;92.96;100947.84;177327;1267;46624;-81
2023/12/04 03:27:58;;;;;;;67.00;33.30;;;;;;;-9.20;91.86;100949.30;176789;1267;58456;-81
2023/12/04 03:32:00;;;;;;;39.80;22.30;;;;;;;-9.33;91.52;100945.05;177162;1268;44482;-81
2023/12/04 03:36:02;;;;;;;41.20;25.70;;;;;;;-9.51;91.18;100944.49;177234;1267;46124;-81
2023/12/04 03:40:04;;;;;;;44.30;20.40;;;;;;;-9.53;94.32;100940.53;177649;1267;45979;-81
2023/12/04 03:44:06;;;;;;;33.30;18.10;;;;;;;-9.46;97.25;100934.42;176783;1267;46056;-81
2023/12/04 03:48:08;;;;;;;37.90;21.80;;;;;;;-9.37;98.21;100924.73;176130;1267;59771;-81
2023/12/04 03:52:10;;;;;;;42.70;21.50;;;;;;;-9.37;97.56;100921.13;176865;1267;46143;-81
2023/12/04 03:56:12;;;;;;;55.80;25.60;;;;;;;-9.49;96.10;100922.72;177297;1268;44451;-81
2023/12/04 04:00:14;;;;;;;49.20;19.60;;;;;;;-9.57;95.36;100925.89;177776;1267;46014;-81
2023/12/04 04:04:16;;;;;;;52.00;25.70;;;;;;;-9.58;95.16;100926.23;177368;1267;45957;-78
2023/12/04 04:08:18;;;;;;;39.00;19.40;;;;;;;-9.55;95.22;100929.00;179362;1268;58089;-80
2023/12/04 04:12:20;;;;;;;35.20;16.80;;;;;;;-9.64;95.59;100928.39;178302;1267;43982;-81
2023/12/04 04:16:21;;;;;;;28.40;16.40;;;;;;;-9.78;98.28;100926.52;177844;1267;46098;-81
2023/12/04 04:20:23;;;;;;;34.40;21.20;;;;;;;-9.74;98.43;100921.06;177846;1268;48086;-80
2023/12/04 04:24:25;;;;;;;27.80;14.20;;;;;;;-9.70;99.01;100913.38;177924;1267;46135;-80
2023/12/04 04:28:27;;;;;;;25.20;15.20;;;;;;;-9.70;100.00;100912.87;176501;1267;57956;-80
2023/12/04 04:32:33;;;;;;;34.80;20.90;;;;;;;-9.68;100.00;100907.39;176421;1267;46011;-80
2023/12/04 04:36:35;;;;;;;41.90;18.40;;;;;;;-9.65;100.00;100899.88;175802;1267;46117;-80
2023/12/04 04:40:41;;;;;;;33.10;15.00;;;;;;;-9.62;100.00;100893.55;176757;1267;46026;-80
2023/12/04 04:44:43;;;;;;;30.10;14.30;;;;;;;-9.47;100.00;100884.09;177142;1267;46052;-80
2023/12/04 04:48:45;;;;;;;42.20;22.50;;;;;;;-9.21;100.00;100882.11;177769;1269;58360;-80
2023/12/04 04:52:47;;;;;;;57.90;25.00;;;;;;;-9.06;100.00;100873.63;175192;1267;46097;-80
2023/12/04 04:56:49;;;;;;;59.80;28.40;;;;;;;-9.08;100.00;100873.45;175933;1269;45985;-80
2023/12/04 05:00:51;;;;;;;49.90;27.90;;;;;;;-9.16;100.00;100873.05;176713;1267;44440;-80
2023/12/04 05:04:53;;;;;;;28.80;16.00;;;;;;;-9.14;100.00;100867.90;177054;1267;46120;-80
2023/12/04 05:08:54;;;;;;;26.30;16.10;;;;;;;-9.23;100.00;100864.21;177308;1267;58274;-80
2023/12/04 05:12:56;;;;;;;26.30;15.00;;;;;;;-9.33;100.00;100861.90;178147;1267;44193;-80
2023/12/04 05:16:58;;;;;;;145.20;64.80;;;;;;;-9.35;100.00;100859.14;176177;1270;46202;-79
2023/12/04 05:21:00;;;;;;;425.70;205.60;;;;;;;-9.29;100.00;100857.80;176607;1268;46117;-80
2023/12/04 05:25:02;;;;;;;371.70;180.30;;;;;;;-9.20;100.00;100853.77;176617;1270;46021;-81
2023/12/04 05:29:04;;;;;;;396.80;174.30;;;;;;;-9.15;100.00;100850.89;176457;1268;58953;-81
2023/12/04 05:33:06;;;;;;;175.70;68.80;;;;;;;-9.09;100.00;100845.09;175822;1267;46104;-81
2023/12/04 05:37:08;;;;;;;68.80;27.60;;;;;;;-9.02;100.00;100847.23;176588;1267;46225;-81
2023/12/04 05:41:10;;;;;;;35.50;19.10;;;;;;;-8.96;100.00;100848.80;176429;1267;46156;-81
2023/12/04 05:45:12;;;;;;;45.30;28.20;;;;;;;-8.91;100.00;100845.74;177459;1267;47318;-81
2023/12/04 05:49:14;;;;;;;54.00;23.60;;;;;;;-8.92;100.00;100843.15;177394;1267;58058;-81
2023/12/04 05:53:16;;;;;;;78.30;39.80;;;;;;;-8.93;100.00;100849.68;179146;1267;44003;-81
2023/12/04 05:57:18;;;;;;;83.00;38.20;;;;;;;-8.86;100.00;100858.33;176923;1268;46057;-81
2023/12/04 06:01:20;;;;;;;53.20;26.70;;;;;;;-8.86;100.00;100853.86;175321;1272;46216;-80
2023/12/04 06:05:23;;;;;;;50.40;22.60;;;;;;;-8.89;100.00;100854.52;175946;1268;46217;-81
2023/12/04 06:09:25;;;;;;;47.40;20.60;;;;;;;-8.94;100.00;100848.13;176691;1267;59507;-81
2023/12/04 06:13:26;;;;;;;40.80;21.80;;;;;;;-9.16;100.00;100844.86;176154;1268;46017;-81
2023/12/04 06:17:28;;;;;;;43.30;24.30;;;;;;;-9.22;100.00;100838.80;175705;1267;46112;-81
2023/12/04 06:21:31;;;;;;;74.00;37.30;;;;;;;-9.15;100.00;100829.08;175837;1267;46130;-81
2023/12/04 06:25:33;;;;;;;155.00;76.50;;;;;;;-9.13;100.00;100830.45;176456;1267;45989;-81
2023/12/04 06:29:35;;;;;;;236.50;122.00;;;;;;;-9.17;100.00;100831.97;176451;1267;58494;-81
2023/12/04 06:33:37;;;;;;;224.20;93.10;;;;;;;-9.09;100.00;100831.69;177160;1267;45922;-81
2023/12/04 06:37:39;;;;;;;77.10;36.40;;;;;;;-9.05;100.00;100824.15;175566;1267;46219;-81
2023/12/04 06:41:42;;;;;;;57.10;27.40;;;;;;;-9.15;100.00;100831.13;177144;1267;45130;-81
2023/12/04 06:45:45;;;;;;;56.90;25.20;;;;;;;-9.09;100.00;100834.77;176515;1267;46043;-81
2023/12/04 06:49:47;;;;;;;49.90;24.60;;;;;;;-9.05;100.00;100835.33;177249;1267;59253;-81
2023/12/04 06:53:49;;;;;;;61.20;28.00;;;;;;;-9.11;100.00;100839.07;176838;1268;46021;-81
2023/12/04 06:57:50;;;;;;;36.70;21.60;;;;;;;-9.14;100.00;100840.92;176616;1267;46082;-81
2023/12/04 07:01:52;;;;;;;42.10;21.50;;;;;;;-9.14;100.00;100845.73;176907;1267;46442;-81
2023/12/04 07:05:54;;;;;;;49.40;27.50;;;;;;;-9.17;100.00;100842.11;177628;1267;46104;-81
2023/12/04 07:09:56;;;;;;;36.00;18.50;;;;;;;-9.09;100.00;100828.08;177184;1269;59428;-81
2023/12/04 07:13:58;;;;;;;55.40;28.80;;;;;;;-8.92;100.00;100826.65;175577;1268;46062;-81
2023/12/04 07:18:00;;;;;;;46.20;25.10;;;;;;;-8.81;100.00;100825.19;177415;1267;45970;-81
2023/12/04 07:22:03;;;;;;;61.30;28.20;;;;;;;-8.77;100.00;100825.55;177215;1267;46133;-81
2023/12/04 07:26:06;;;;;;;56.30;29.30;;;;;;;-8.74;100.00;100822.30;177708;1268;46208;-81
2023/12/04 07:30:08;;;;;;;63.50;33.50;;;;;;;-8.71;100.00;100818.88;179721;1267;58771;-81
2023/12/04 07:34:10;;;;;;;65.30;34.90;;;;;;;-8.55;100.00;100817.77;178514;1267;46108;-81
2023/12/04 07:38:12;;;;;;;111.20;51.80;;;;;;;-8.28;100.00;100822.00;177460;1270;46328;-81
2023/12/04 07:42:14;;;;;;;49.20;26.10;;;;;;;-8.09;100.00;100824.83;177077;1268;46012;-81
2023/12/04 07:46:16;;;;;;;47.00;26.60;;;;;;;-8.08;99.50;100822.23;176472;1268;46114;-81
2023/12/04 07:50:18;;;;;;;46.00;26.50;;;;;;;-8.13;98.57;100818.27;176091;1268;58290;-81
2023/12/04 07:54:20;;;;;;;131.90;63.60;;;;;;;-8.05;99.92;100818.13;176233;1268;46053;-81
2023/12/04 07:58:21;;;;;;;76.70;47.70;;;;;;;-7.82;100.00;100816.65;176635;1270;46202;-81
2023/12/04 08:02:23;;;;;;;46.60;30.00;;;;;;;-7.56;100.00;100812.39;176354;1269;45995;-81
2023/12/04 08:06:25;;;;;;;53.40;35.70;;;;;;;-7.41;100.00;100807.92;175938;1267;46143;-81
2023/12/04 08:10:27;;;;;;;55.10;28.00;;;;;;;-7.28;100.00;100809.13;176836;1267;59519;-80
2023/12/04 08:14:29;;;;;;;53.50;32.90;;;;;;;-7.20;100.00;100808.80;177311;1268;46133;-82
2023/12/04 08:18:31;;;;;;;43.20;26.60;;;;;;;-7.08;100.00;100802.06;176542;1267;46115;-81
2023/12/04 08:22:33;;;;;;;51.20;27.20;;;;;;;-6.90;99.98;100798.23;176868;1268;46100;-81
2023/12/04 08:26:35;;;;;;;55.00;29.80;;;;;;;-6.75;98.58;100790.46;176864;1267;46049;-82
2023/12/04 08:30:38;;;;;;;75.80;37.40;;;;;;;-6.72;96.73;100783.55;176856;1267;60785;-81
2023/12/04 08:34:40;;;;;;;383.70;178.90;;;;;;;-6.75;96.49;100786.48;177144;1267;44066;-81
2023/12/04 08:38:43;;;;;;;85.90;46.20;;;;;;;-6.83;96.70;100785.65;176834;1267;46116;-81
2023/12/04 08:42:45;;;;;;;56.60;31.00;;;;;;;-6.84;97.49;100789.45;176760;1267;46088;-82
2023/12/04 08:46:47;;;;;;;57.20;30.90;;;;;;;-6.77;97.07;100784.77;176515;1267;46040;-81
2023/12/04 08:50:48;;;;;;;59.30;30.40;;;;;;;-6.75;95.37;100783.55;176576;1268;57942;-82
2023/12/04 08:54:50;;;;;;;58.20;33.30;;;;;;;-6.70;95.24;100780.77;175942;1267;46124;-80
2023/12/04 08:58:52;;;;;;;51.80;30.90;;;;;;;-6.62;96.77;100773.52;177014;1267;45979;-81
2023/12/04 09:02:54;;;;;;;69.80;38.40;;;;;;;-6.47;97.33;100771.92;177293;1267;44395;-82
2023/12/04 09:07:10;;;;;;;84.60;40.50;;;;;;;-6.23;98.00;100772.67;176518;1268;46047;-81
2023/12/04 09:11:31;;;;;;;97.10;46.00;;;;;;;-5.97;97.43;100772.52;176606;1268;58973;-82
2023/12/04 09:15:33;;;;;;;103.40;48.60;;;;;;;-5.86;96.38;100766.92;176491;1268;46295;-82
2023/12/04 09:19:35;;;;;;;95.00;48.90;;;;;;;-5.77;96.70;100764.27;176660;1267;46471;-81
2023/12/04 09:23:38;;;;;;;78.60;45.80;;;;;;;-5.69;96.52;100761.29;177648;1268;45273;-82
2023/12/04 09:27:39;;;;;;;79.40;42.60;;;;;;;-5.60;96.70;100756.55;176983;1268;46057;-81
2023/12/04 09:31:42;;;;;;;65.80;38.70;;;;;;;-5.47;96.79;100749.55;176581;1267;58254;-81
2023/12/04 09:35:44;;;;;;;82.90;39.30;;;;;;;-5.31;96.77;100750.63;177211;1268;46005;-82
2023/12/04 09:39:45;;;;;;;141.90;72.70;;;;;;;-5.16;96.27;100746.50;177517;1267;45969;-82
2023/12/04 09:43:47;;;;;;;66.10;37.20;;;;;;;-5.05;95.89;100745.89;177198;1268;46235;-82
2023/12/04 09:47:49;;;;;;;60.30;36.30;;;;;;;-4.94;95.12;100749.23;176668;1268;46214;-82
2023/12/04 09:51:51;;;;;;;111.50;59.50;;;;;;;-4.90;94.50;100741.41;176987;1267;58982;-81
2023/12/04 09:55:56;;;;;;;80.80;42.80;;;;;;;-4.84;94.12;100738.40;177654;1267;44104;-81
2023/12/04 10:00:02;;;;;;;70.60;37.80;;;;;;;-4.84;93.69;100730.61;176671;1267;46133;-81
2023/12/04 10:04:07;;;;;;;62.90;33.60;;;;;;;-4.88;93.24;100725.48;176626;1267;46043;-81
2023/12/04 10:08:09;;;;;;;53.20;30.90;;;;;;;-4.88;93.22;100722.86;177359;1268;46016;-81
2023/12/04 10:12:11;;;;;;;60.60;32.40;;;;;;;-4.76;93.39;100720.15;177184;1268;58713;-82
2023/12/04 10:16:13;;;;;;;64.50;31.60;;;;;;;-4.72;92.76;100720.63;176250;1267;46127;-82
2023/12/04 10:20:18;;;;;;;53.10;28.20;;;;;;;-4.70;92.71;100713.68;176699;1272;47959;-82
2023/12/04 10:24:27;;;;;;;51.90;31.00;;;;;;;-4.69;93.11;100712.62;177004;1268;46117;-81
2023/12/04 10:28:29;;;;;;;63.50;34.70;;;;;;;-4.64;93.75;100708.41;176895;1268;45980;-82
2023/12/04 10:32:31;;;;;;;72.90;39.60;;;;;;;-4.49;94.65;100709.96;177157;1268;58143;-81
2023/12/04 10:36:33;;;;;;;59.20;30.20;;;;;;;-4.29;94.24;100699.14;177444;1268;46076;-81
2023/12/04 10:40:37;;;;;;;61.70;35.60;;;;;;;-4.12;94.10;100693.53;177087;1267;46047;-81
2023/12/04 10:44:40;;;;;;;70.60;36.80;;;;;;;-3.94;93.34;100681.84;177704;1268;46168;-82
2023/12/04 10:48:45;;;;;;;60.50;34.80;;;;;;;-3.82;92.22;100674.55;179844;1267;43999;-82
2023/12/04 10:52:48;;;;;;;76.40;41.10;;;;;;;-3.75;91.42;100667.14;179083;1268;58163;-82
2023/12/04 10:56:52;;;;;;;83.10;44.90;;;;;;;-3.73;90.75;100668.69;177532;1268;46229;-82
2023/12/04 11:00:56;;;;;;;99.30;52.10;;;;;;;-3.79;90.20;100664.95;176741;1268;46225;-82
2023/12/04 11:05:13;;;;;;;175.10;89.80;;;;;;;-3.76;90.13;100658.67;176923;1267;46578;-82
2023/12/04 11:09:18;;;;;;;64.70;37.40;;;;;;;-3.82;90.77;100653.05;176366;1268;46220;-82
2023/12/04 11:13:23;;;;;;;46.60;33.70;;;;;;;-3.78;91.97;100649.17;176281;1268;58261;-82
2023/12/04 11:17:28;;;;;;;58.10;40.00;;;;;;;-3.70;92.54;100651.47;176729;1268;45964;-82
2023/12/04 11:21:32;;;;;;;53.90;37.00;;;;;;;-3.52;92.77;100648.05;177535;1268;46254;-82
2023/12/04 11:25:35;;;;;;;63.60;39.00;;;;;;;-3.42;92.62;100640.93;176561;1268;46034;-82
2023/12/04 11:29:39;;;;;;;62.60;39.10;;;;;;;-3.46;91.51;100638.73;176660;1268;46126;-82
2023/12/04 11:33:41;;;;;;;49.90;29.40;;;;;;;-3.47;91.64;100633.91;177055;1268;59452;-81
2023/12/04 11:37:44;;;;;;;69.50;36.90;;;;;;;-3.46;91.71;100623.84;176626;1267;46129;-82
2023/12/04 11:41:46;;;;;;;67.00;35.50;;;;;;;-3.52;92.21;100618.05;176911;1267;46177;-82
2023/12/04 11:45:49;;;;;;;58.40;30.80;;;;;;;-3.54;92.13;100609.41;177288;1269;45363;-83
2023/12/04 11:49:51;;;;;;;60.70;33.50;;;;;;;-3.57;92.17;100596.79;176973;1268;46130;-83
2023/12/04 11:53:54;;;;;;;57.50;30.50;;;;;;;-3.50;92.37;100589.05;177251;1268;59417;-83
2023/12/04 11:57:57;;;;;;;55.40;33.60;;;;;;;-3.53;92.20;100587.89;176775;1269;46213;-82
2023/12/04 12:02:00;;;;;;;57.70;31.10;;;;;;;-3.55;92.32;100582.02;176195;1268;46094;-82
2023/12/04 12:06:03;;;;;;;60.00;32.70;;;;;;;-3.54;92.88;100577.84;176990;1268;46097;-82
2023/12/04 12:10:06;;;;;;;56.90;36.10;;;;;;;-3.55;93.09;100567.81;176532;1268;45995;-80
2023/12/04 12:14:08;;;;;;;56.50;31.80;;;;;;;-3.67;93.62;100564.92;176582;1268;57492;-82
2023/12/04 12:18:13;;;;;;;49.10;28.10;;;;;;;-3.76;94.48;100551.57;176424;1268;46074;-82
2023/12/04 12:22:16;;;;;;;55.50;33.00;;;;;;;-3.79;94.90;100546.76;177200;1267;46123;-82
2023/12/04 12:26:17;;;;;;;74.50;39.00;;;;;;;-3.80;95.57;100544.52;176862;1271;46026;-81
2023/12/04 12:30:19;;;;;;;49.80;28.40;;;;;;;-3.82;96.38;100531.20;176309;1268;46056;-81
2023/12/04 12:34:21;;;;;;;61.90;33.30;;;;;;;-3.73;96.92;100525.15;176609;1268;58209;-81
2023/12/04 12:38:23;;;;;;;71.20;35.40;;;;;;;-3.64;97.28;100517.18;177040;1268;45957;-81
2023/12/04 12:42:28;;;;;;;61.20;33.90;;;;;;;-3.50;97.30;100511.89;176499;1268;46161;-80
2023/12/04 12:46:30;;;;;;;51.70;28.60;;;;;;;-3.36;97.32;100498.60;175651;1272;46134;-81
2023/12/04 12:50:32;;;;;;;58.30;30.50;;;;;;;-3.21;97.29;100491.52;176098;1267;45615;-81
2023/12/04 12:54:45;;;;;;;55.60;32.10;;;;;;;-3.15;97.02;100486.55;176532;1267;59216;-81
2023/12/04 12:58:47;;;;;;;49.00;27.60;;;;;;;-3.11;97.03;100472.76;176002;1269;46123;-82
2023/12/04 13:02:52;;;;;;;54.20;27.90;;;;;;;-3.07;96.96;100465.36;176493;1269;46136;-81
2023/12/04 13:06:54;;;;;;;60.10;33.60;;;;;;;-3.03;96.82;100457.13;177365;1268;45297;-81
2023/12/04 13:10:56;;;;;;;52.80;34.30;;;;;;;-3.08;96.23;100454.63;176410;1272;46037;-82
2023/12/04 13:14:57;;;;;;;60.30;34.80;;;;;;;-3.19;96.15;100451.41;177470;1268;60217;-82
2023/12/04 13:18:59;;;;;;;59.40;35.70;;;;;;;-3.24;96.52;100456.04;176375;1272;46245;-81
2023/12/04 13:23:02;;;;;;;48.80;30.20;;;;;;;-3.28;96.47;100457.34;176878;1273;44794;-82
2023/12/04 13:27:04;;;;;;;57.40;32.30;;;;;;;-3.33;96.43;100457.96;176675;1274;46116;-82
2023/12/04 13:31:06;;;;;;;59.00;33.80;;;;;;;-3.42;96.92;100452.40;176769;1273;218808;-82
2023/12/04 13:35:08;;;;;;;56.50;27.70;;;;;;;-3.51;97.78;100442.39;177174;1267;58172;-81
2023/12/04 13:39:16;;;;;;;51.40;30.40;;;;;;;-3.51;98.46;100440.13;177972;1267;44042;-81
2023/12/04 13:47:39;;;;;;;58.30;29.70;;;;;;;-3.46;98.21;100432.92;177249;1267;46021;-81
2023/12/04 13:51:41;;;;;;;51.10;31.80;;;;;;;-3.47;98.17;100424.27;177921;1272;45994;-81
2023/12/04 13:56:24;;;;;;;47.00;29.10;;;;;;;-3.48;98.19;100414.92;176975;1268;59552;-81
2023/12/04 14:00:14;;;;;;;57.50;32.00;;;;;;;-3.45;98.09;100418.14;177423;1267;46123;-85
2023/12/04 14:04:16;;;;;;;48.20;28.20;;;;;;;-3.53;98.00;100412.95;177176;1268;44455;-80
2023/12/04 14:08:20;;;;;;;62.30;31.90;;;;;;;-3.54;98.56;100404.11;178312;1272;45882;-83
2023/12/04 14:12:22;;;;;;;53.10;30.30;;;;;;;-3.60;98.70;100405.63;179597;1268;46021;-83
2023/12/04 14:16:24;;;;;;;59.20;33.30;;;;;;;-3.61;98.97;100399.23;178087;1268;60533;-82
2023/12/04 14:20:26;;;;;;;62.50;33.10;;;;;;;-3.64;99.49;100395.14;177761;1268;46117;-82
2023/12/04 14:24:29;;;;;;;49.30;27.10;;;;;;;-3.65;99.47;100390.66;177047;1268;46428;-82
2023/12/04 14:28:32;;;;;;;57.80;34.10;;;;;;;-3.64;99.69;100397.58;177771;1269;46024;-82
2023/12/04 14:32:44;;;;;;;59.30;36.50;;;;;;;-3.60;99.89;100406.50;178132;1268;44159;-80
2023/12/04 14:36:49;;;;;;;55.00;32.80;;;;;;;-3.58;99.60;100405.23;177973;1268;57571;-81
2023/12/04 14:40:51;;;;;;;64.60;37.40;;;;;;;-3.64;99.18;100408.66;177137;1268;46610;-82
2023/12/04 14:44:54;;;;;;;63.90;37.20;;;;;;;-3.67;98.89;100410.46;178037;1267;45164;-82
2023/12/04 14:48:56;;;;;;;68.00;36.90;;;;;;;-3.75;98.70;100406.65;176848;1273;46493;-82
2023/12/04 14:53:10;;;;;;;70.10;42.70;;;;;;;-3.85;98.62;100399.73;177225;1272;46069;-82
2023/12/04 15:06:31;;;;;;;62.70;36.20;;;;;;;-4.07;100.00;100381.13;177966;1268;44115;-82
2023/12/04 15:18:43;;;;;;;87.00;40.70;;;;;;;-4.14;100.00;100364.96;177358;1273;58264;-81
2023/12/04 15:22:46;;;;;;;82.30;43.50;;;;;;;-4.11;100.00;100367.69;176770;1272;46098;-82
2023/12/04 15:26:48;;;;;;;94.40;48.10;;;;;;;-4.14;100.00;100368.25;177195;1267;46252;-81
2023/12/04 15:30:50;;;;;;;79.50;45.80;;;;;;;-4.14;100.00;100359.58;177027;1268;45961;-82
2023/12/04 15:34:52;;;;;;;73.90;38.10;;;;;;;-4.18;100.00;100351.70;176734;1268;46053;-82
2023/12/04 15:38:54;;;;;;;76.50;44.30;;;;;;;-4.20;100.00;100353.46;177989;1272;59607;-81
2023/12/04 15:42:56;;;;;;;70.30;42.20;;;;;;;-4.23;100.00;100347.98;177702;1267;45979;-81
2023/12/04 15:46:58;;;;;;;77.30;43.30;;;;;;;-4.30;100.00;100339.47;177386;1272;46123;-81
2023/12/04 15:51:01;;;;;;;64.60;38.60;;;;;;;-4.35;100.00;100335.22;177446;1267;46060;-80
2023/12/04 15:55:03;;;;;;;72.40;42.80;;;;;;;-4.38;100.00;100333.39;177547;1270;46145;-80
2023/12/04 15:59:05;;;;;;;75.80;43.10;;;;;;;-4.39;100.00;100332.38;177047;1273;59346;-82
2023/12/04 16:03:07;;;;;;;76.50;47.10;;;;;;;-4.42;100.00;100337.11;177460;1268;45677;-81
2023/12/04 16:07:09;;;;;;;79.50;44.80;;;;;;;-4.47;100.00;100334.77;177313;1267;46108;-82
2023/12/04 16:11:12;;;;;;;77.60;43.60;;;;;;;-4.48;100.00;100337.73;177056;1270;44487;-82
2023/12/04 16:15:16;;;;;;;82.30;46.20;;;;;;;-4.53;100.00;100342.68;178116;1267;45929;-81
2023/12/04 16:19:18;;;;;;;75.10;44.30;;;;;;;-4.58;100.00;100341.03;178403;1269;58892;-80
2023/12/04 16:23:21;;;;;;;82.10;43.50;;;;;;;-4.60;100.00;100332.41;177656;1270;44336;-81
2023/12/04 16:27:23;;;;;;;87.40;45.70;;;;;;;-4.55;100.00;100333.20;178348;1269;44451;-81
2023/12/04 16:31:25;;;;;;;74.80;43.50;;;;;;;-4.50;100.00;100328.08;177783;1273;43988;-81
2023/12/04 16:35:28;;;;;;;79.80;40.80;;;;;;;-4.44;100.00;100323.46;178243;1272;46018;-81
2023/12/04 16:39:30;;;;;;;94.40;46.40;;;;;;;-4.37;100.00;100320.90;179089;1269;58428;-81
2023/12/04 16:43:32;;;;;;;86.50;43.50;;;;;;;-4.31;100.00;100315.61;178955;1270;44378;-81
2023/12/04 16:47:34;;;;;;;78.40;46.60;;;;;;;-4.25;100.00;100324.48;178846;1268;46008;-81
2023/12/04 16:51:36;;;;;;;94.70;48.70;;;;;;;-4.17;100.00;100323.30;179386;1269;43894;-82
2023/12/04 16:55:38;;;;;;;71.70;44.40;;;;;;;-4.18;100.00;100317.23;178846;1268;45353;-81
2023/12/04 16:59:40;;;;;;;84.30;53.00;;;;;;;-4.18;100.00;100312.21;178479;1270;59774;-82
2023/12/04 17:03:42;;;;;;;119.00;59.80;;;;;;;-4.15;100.00;100302.27;177288;1272;46591;-82
2023/12/04 17:07:44;;;;;;;96.20;50.90;;;;;;;-4.14;100.00;100295.51;178785;1270;46130;-82
2023/12/04 17:11:46;;;;;;;89.50;52.30;;;;;;;-4.11;100.00;100290.23;177941;1269;44246;-81
2023/12/04 17:15:48;;;;;;;89.80;49.00;;;;;;;-4.07;100.00;100288.63;178627;1270;44574;-81
2023/12/04 17:19:50;;;;;;;87.20;53.60;;;;;;;-4.08;100.00;100280.85;177598;1268;58047;-81
2023/12/04 17:23:53;;;;;;;78.50;48.00;;;;;;;-4.02;100.00;100274.83;177705;1270;46085;-82
2023/12/04 17:27:55;;;;;;;84.50;48.20;;;;;;;-3.96;100.00;100272.10;179234;1267;43996;-80
2023/12/04 17:31:57;;;;;;;81.60;43.90;;;;;;;-3.92;100.00;100266.12;179227;1272;46180;-81
2023/12/04 17:36:01;;;;;;;87.50;46.90;;;;;;;-3.88;100.00;100260.65;177957;1267;46149;-81
2023/12/04 17:40:03;;;;;;;79.70;49.90;;;;;;;-3.84;100.00;100254.52;176858;1272;59235;-81
2023/12/04 17:44:05;;;;;;;80.10;48.10;;;;;;;-3.86;100.00;100249.86;177427;1267;45955;-82
2023/12/04 17:48:07;;;;;;;104.30;55.20;;;;;;;-3.81;100.00;100246.45;177398;1270;44882;-81
2023/12/04 17:52:10;;;;;;;98.30;54.10;;;;;;;-3.81;100.00;100246.81;177760;1270;46124;-82
2023/12/04 17:56:12;;;;;;;120.20;59.30;;;;;;;-3.78;100.00;100248.11;177848;1270;45747;-80
2023/12/04 18:00:14;;;;;;;118.50;64.30;;;;;;;-3.72;100.00;100249.03;177797;1270;59144;-81
2023/12/04 18:04:16;;;;;;;111.80;57.20;;;;;;;-3.69;100.00;100249.47;177096;1267;46044;-80
2023/12/04 18:08:18;;;;;;;109.80;60.20;;;;;;;-3.63;100.00;100237.71;176899;1267;46210;-81
2023/12/04 18:12:20;;;;;;;90.30;45.90;;;;;;;-3.57;100.00;100224.58;177063;1267;46181;-80
2023/12/04 18:16:22;;;;;;;79.20;45.50;;;;;;;-3.51;100.00;100208.48;177787;1267;46050;-82
2023/12/04 18:20:26;;;;;;;85.30;50.40;;;;;;;-3.46;100.00;100209.76;178130;1267;59937;-82
2023/12/04 18:24:28;;;;;;;81.80;44.10;;;;;;;-3.45;100.00;100208.14;178393;1267;46452;-84